首页
METAR-TAF:

METAR-TAF

机场 :

格蘭德艾蘭, 內布拉斯加州, 美国

纬度: 40-57-30N, 经度: 098-18-45W, 海拔: 562米

当前天气观测

该预报发布于26分钟前的04:53 UTC
风速7节,风向北转西北
温度 5°C
湿度 60%
气压 1012 hPa
能見度: 16.1公里
天空无云

METAR: KGRI 190453Z AUTO 33007KT 10SM CLR 05/M02 A2988 RMK AO2 SLP124 T00501017

时间: 23:19 (05:19 UTC)

预报

该预报发布于5小时和34分钟前的23:45 UTC
预报有效从19日的 00点(UTC)到 19日的 24点(UTC)
风速12节,风向西北,有时为17节阵风
能見度: 10公里
天空无云
从 19日的 0200点(UTC)
风速9节,风向西北
能見度: 10公里
天空无云
从 19日的 0600点(UTC)
风速6节,风向西
能見度: 10公里
天空无云
从 19日的 1600点(UTC)
风速6节,风向多变
能見度: 10公里
少量云层高于7000英尺
从 19日的 1900点(UTC)
风速10节,风向南转南东
能見度: 10公里
少量云层高于7000英尺
散云层高于25000英尺

TAF: KGRI 182345Z 1900/1924 32012G17KT P6SM SKC FM190200 31009KT P6SM SKC FM190600 27006KT P6SM SKC FM191600 VRB06KT P6SM FEW070 FM191900 15010KT P6SM FEW070 SCT250

超过4000个机场的气象观测和天气预报(METAR&TAF报告)。

可查询的气象台以黄色和红色小点在地图上表示。

将鼠标移到小点上方,可查看气象台名称。

然后点击查看天气观测和预报。

如需切换地图:点击带黑十字的绿色按钮放大地图;点击带横线的绿色按钮缩小地图;或者点击绿色箭头查看邻近地区的地图。


METAR-TAF: